• Join FlightAware (Why Join?)
  • Login
  • US Flag 
04:00AM EST


 

Airport Tracker/Info


-or-


 

Live Flight TrackerFlight Track Log ✈ SKW2685 ✈ 27-Jul-2013 ✈ KLAX - KSJC

Flight Track Log - Related Links

Times and Time Zones

All times are in EDT time to prevent confusion due to time zone crossing. See the SKW2685 flight status page for this flight to view local times or setup timezone preferences in your user account.

Time Position Orientation Groundspeed Altitude Reporting Facility
EDT Latitude Longitude Course Direction KTS MPH feet Rate Location/Type
07:06PM 33.9350 -118.4361 264° West 156 180 1,500  Level Los Angeles Center
07:07PM 33.9261 -118.5308 264° West 250 288 3,900 2,340 Climbing Los Angeles Center
07:09PM 33.9172 -118.6200 263° West 268 308 6,300 2,460 Climbing Los Angeles Center
07:10PM 33.9075 -118.7225 264° West 285 328 9,100 1,980 Climbing Los Angeles Center
07:11PM 33.9014 -118.7903 264° West 289 333 10,400 1,260 Climbing Los Angeles Center
07:12PM 33.9603 -118.8997 303° West 337 388 11,700 1,320 Climbing Los Angeles Center
07:13PM 34.0211 -118.9947 308° West 354 407 13,200 1,620 Climbing Los Angeles Center
07:14PM 34.0953 -119.1119 307° West 368 423 15,100 1,560 Climbing Los Angeles Center
07:15PM 34.1578 -119.2108 307° West 372 428 16,500 1,260 Climbing Los Angeles Center
07:16PM 34.2217 -119.3122 307° West 382 440 17,700 1,140 Climbing Los Angeles Center
07:17PM 34.2850 -119.4144 307° West 382 440 18,900 1,080 Climbing Los Angeles Center
07:18PM 34.3486 -119.5167 307° West 382 440 20,000 1,200 Climbing Los Angeles Center
07:19PM 34.4144 -119.6208 307° West 388 447 21,400 1,500 Climbing Los Angeles Center
07:20PM 34.4769 -119.7194 308° West 372 428 23,100 1,500 Climbing Los Angeles Center
07:21PM 34.5661 -119.8192 317° Northwest 369 425 24,500 1,020 Climbing Los Angeles Center
07:22PM 34.6411 -119.8811 326° Northwest 380 437 25,300 840 Climbing Los Angeles Center
07:23PM 34.7497 -119.9689 326° Northwest 388 447 26,300 960 Climbing Los Angeles Center
07:24PM 34.8394 -120.0442 325° Northwest 392 451 27,300 900 Climbing Los Angeles Center
07:25PM 34.9306 -120.1175 327° Northwest 399 459 28,200 720 Climbing Los Angeles Center
07:26PM 35.0211 -120.1942 325° Northwest 401 461 28,800 480 Climbing Los Angeles Center
07:27PM 35.0958 -120.2561 326° Northwest 408 470 29,200 480 Climbing Los Angeles Center
07:28PM 35.2089 -120.3514 325° Northwest 415 478 29,900 360 Climbing Los Angeles Center
07:29PM 35.3267 -120.4500 326° Northwest 438 504 30,000  Climbing Los Angeles Center
07:30PM 35.4278 -120.5411 324° Northwest 466 536 30,000  Level Los Angeles Center
07:31PM 35.5314 -120.6261 326° Northwest 454 522 30,000  Level Los Angeles Center
07:32PM 35.6344 -120.7128 326° Northwest 452 520 30,000  Level Los Angeles Center
07:33PM 35.7114 -120.7781 325° Northwest 457 526 30,000  Level Oakland Center
07:34PM 35.8175 -120.8683 325° Northwest 459 528 30,000  Level Oakland Center
07:35PM 35.9228 -120.9592 325° Northwest 461 531 30,000 -840 Level Oakland Center
07:36PM 36.0317 -121.0506 326° Northwest 472 543 28,300 -1,920 Descending Oakland Center
07:37PM 36.1417 -121.1447 325° Northwest 478 550 26,100 -2,220 Descending Oakland Center
07:38PM 36.2469 -121.2381 324° Northwest 464 534 23,900 -2,400 Descending Oakland Center
07:39PM 36.3689 -121.3425 325° Northwest 441 507 21,200 -2,400 Descending Oakland Center
07:40PM 36.4669 -121.4194 328° Northwest 418 481 19,000 -1,620 Descending Oakland Center
07:41PM 36.5739 -121.4419 350° North 381 438 18,000 -540 Descending Oakland Center
07:42PM 36.6761 -121.4667 349° North 374 430 18,000 -180 Level Oakland Center
07:43PM 36.7797 -121.4947 348° North 379 436 17,700 -1,140 Descending Oakland Center
07:44PM 36.8722 -121.5181 349° North 360 414 15,800 -2,160 Descending Oakland Center
07:45PM 36.9642 -121.5433 348° North 341 392 13,400 -2,160 Descending Oakland Center
07:46PM 37.0517 -121.5703 346° North 325 374 11,500 -1,920 Descending Oakland Center
07:47PM 37.1106 -121.6489 313° West 293 337 9,600 -2,400 Descending Oakland Center
07:48PM 37.1667 -121.7167 316° Northwest 275 316 7,100 -2,460 Descending Northern Cal TRACON
07:49PM 37.2167 -121.7833 313° West 252 290 5,100 -1,980 Descending Northern Cal TRACON
07:50PM 37.2667 -121.8167 332° Northwest 198 228 3,200 -1,800 Descending Northern Cal TRACON
07:51PM 37.3000 -121.8667 310° West 161 185 1,600 -1,200 Descending Northern Cal TRACON
07:52PM 37.3333 -121.9000 322° Northwest 134 154 900 -720 Descending Northern Cal TRACON
07:53PM 37.3586 -121.9275 319° Northwest 139 160 100 -660 Descending Oakland Center
07:55PM 37.3627 -121.9291 North  Level Estimated